IST,Max TemperatureF,Mean TemperatureF,Min TemperatureF,Max Dew PointF,MeanDew PointF,Min DewpointF,Max Humidity, Mean Humidity, Min Humidity, Max Sea Level PressureIn, Mean Sea Level PressureIn, Min Sea Level PressureIn, Max VisibilityMiles, Mean VisibilityMiles, Min VisibilityMiles, Max Wind SpeedMPH, Mean Wind SpeedMPH, Max Gust SpeedMPH,PrecipitationIn, CloudCover, Events, WindDirDegrees
2012-10-1,92,82,73,79,75,72,94,78,48,29.80,29.72,29.65,6,4,2,13,7,,0.00,5,Rain-Thunderstorm,220
2012-10-2,95,86,77,79,76,72,89,73,49,29.84,29.75,29.68,6,4,2,15,8,,0.00,3,,190
2012-10-3,95,86,76,77,74,66,89,71,39,29.87,29.76,29.68,6,4,2,14,8,,0.00,2,,195
2012-10-4,98,88,77,77,73,66,89,66,26,29.86,29.75,29.65,6,4,2,14,8,,0.00,1,,208
2012-10-5,95,86,76,80,75,72,84,70,43,29.86,29.78,29.71,6,4,2,13,7,,0.00,2,,187
2012-10-6,95,86,78,79,75,70,89,70,43,29.88,29.81,29.74,6,4,2,14,5,,0.00,3,Thunderstorm,210
2012-10-7,94,85,76,77,75,70,89,75,45,29.92,29.82,29.74,6,3,2,9,4,,0.00,4,Rain,254
2012-10-8,94,86,77,79,74,66,94,69,41,29.86,29.77,29.68,6,3,1,12,2,,0.00,3,,108
2012-10-9,97,88,78,77,72,64,89,65,31,29.82,29.74,29.65,6,3,0,51,4,,0.00,2,,176
2012-10-10,97,86,75,79,74,64,94,70,30,29.81,29.74,29.65,6,3,1,12,4,,0.00,1,,194
2012-10-11,96,86,77,79,75,70,94,72,44,29.86,29.76,29.68,6,3,2,12,6,,0.00,2,,190
2012-10-12,95,87,79,79,76,72,94,76,49,29.88,29.79,29.71,6,3,1,13,4,,0.00,2,,191
2012-10-13,93,85,77,79,77,72,94,79,49,29.89,29.81,29.74,6,3,2,12,4,,0.08,3,,206
2012-10-14,94,84,75,79,76,73,94,75,43,29.91,29.83,29.74,6,4,1,12,4,,0.00,2,,161
2012-10-15,94,86,77,78,75,70,89,72,40,29.94,29.87,29.80,6,4,2,14,6,,0.00,2,,185
2012-10-16,91,82,74,77,75,72,89,77,47,29.96,29.89,29.83,6,3,1,13,5,,0.39,4,Rain-Thunderstorm,360
2012-10-17,84,79,74,77,74,72,94,85,73,29.94,29.88,29.80,4,2,1,17,4,,0.00,4,Rain-Thunderstorm,9
2012-10-18,84,78,73,77,75,73,100,90,72,29.93,29.85,29.77,2,2,1,9,2,,0.79,6,Rain-Thunderstorm,10
2012-10-19,84,78,72,78,75,73,100,93,79,29.93,29.85,29.77,3,2,1,10,3,,1.65,7,Rain-Thunderstorm,359
2012-10-20,84,78,73,77,76,73,100,93,79,29.93,29.86,29.80,2,2,1,10,4,,0.00,6,Rain-Thunderstorm,14
2012-10-21,84,78,73,79,76,73,100,92,84,29.96,29.85,29.77,6,2,1,12,2,,0.00,7,Rain-Thunderstorm,42
2012-10-22,87,80,73,79,75,72,100,84,64,29.95,29.86,29.80,6,3,1,14,4,,0.43,2,Rain,65
2012-10-23,90,82,74,77,75,73,94,82,66,29.90,29.84,29.77,6,3,2,16,4,25,0.71,2,Rain-Thunderstorm,41
2012-10-24,88,80,73,77,75,73,100,86,62,29.95,29.85,29.74,6,3,1,9,3,,0.00,5,Rain-Thunderstorm,283
2012-10-25,89,81,73,79,75,72,94,82,55,29.91,29.81,29.74,6,3,2,13,3,,0.00,2,Rain,36
2012-10-26,90,82,74,77,74,72,94,79,48,29.89,29.80,29.74,6,2,2,13,3,,0.00,2,,27
2012-10-27,90,82,74,75,73,70,94,74,45,29.86,29.80,29.74,6,3,1,14,3,21,0.00,2,,26
2012-10-28,89,83,77,77,74,72,89,74,55,29.87,29.80,29.74,6,3,2,16,5,25,0.01,3,,18
2012-10-29,88,82,77,76,72,66,89,69,46,29.86,29.78,29.71,6,3,2,17,8,29,0.00,4,Rain,17
2012-10-30,77,75,73,75,73,70,100,91,70,29.86,29.75,29.68,2,2,1,10,5,,2.32,6,Rain-Thunderstorm,344
2012-10-31,82,76,71,77,74,71,95,89,78,29.68,29.53,29.27,2,2,1,40,14,52,0.35,8,Rain-Thunderstorm,52